Time;durP1;ratioP1;P1;durP2;ratioP2;P2;SDS_P1;SDS_P2;PMS_P1;PMS_P2;Temp;Humidity;BMP_temperature;BMP_pressure;BME280_temperature;BME280_humidity;BME280_pressure;Samples;Min_cycle;Max_cycle;Signal;HPM_P1;HPM_P2
2023/01/12 00:00:58;;;;;;;;;;;;;;;6.78;100.00;98292.69;5097601;28;19924;-75
2023/01/12 00:03:27;;;;;;;;;;;;;;;6.81;100.00;98300.19;5099300;28;19987;-75
2023/01/12 00:05:57;;;;;;;;;;;;;;;6.83;100.00;98297.31;5117013;28;19920;-75
2023/01/12 00:08:23;;;;;;;;;;;;;;;6.82;100.00;98293.03;5118996;28;19927;-75
2023/01/12 00:10:54;;;;;;;;;;;;;;;6.74;100.00;98285.41;5102100;28;19923;-75
2023/01/12 00:13:21;;;;;;;;;;;;;;;6.77;100.00;98293.75;5099700;28;19995;-75
2023/01/12 00:18:27;;;;;;;;;;;;;;;6.87;100.00;98274.59;5118065;28;19990;-76
2023/01/12 00:20:54;;;;;;;;;;;;;;;6.79;100.00;98277.56;5119619;28;19923;-76
2023/01/12 00:23:28;;;;;;;;;;;;;;;6.78;100.00;98273.28;5117759;28;19952;-75
2023/01/12 00:25:55;;;;;;;;;;;;;;;6.83;100.00;98284.03;5107711;28;19984;-75
2023/01/12 00:28:22;;;;;;;;;;;;;;;6.76;100.00;98288.66;5120497;28;19924;-74
2023/01/12 00:30:48;;;;;;;;;;;;;;;6.74;100.00;98283.59;5107410;28;19955;-74
2023/01/12 00:33:14;;;;;;;;;;;;;;;6.60;100.00;98287.47;5100612;28;19998;-75
2023/01/12 00:35:41;;;;;;;;;;;;;;;6.87;100.00;98287.88;5116105;28;19959;-75
2023/01/12 00:38:07;;;;;;;;;;;;;;;6.89;100.00;98286.59;5116437;28;20341;-75
2023/01/12 00:40:35;;;;;;;;;;;;;;;6.90;100.00;98285.53;5119495;28;19931;-75
2023/01/12 00:45:49;;;;;;;;;;;;;;;6.71;100.00;98291.19;5131901;27;20400;-76
2023/01/12 00:48:15;;;;;;;;;;;;;;;6.90;100.00;98292.72;5098765;28;19934;-76
2023/01/12 00:50:42;;;;;;;;;;;;;;;6.93;100.00;98302.88;5101170;28;19923;-76
2023/01/12 00:53:08;;;;;;;;;;;;;;;6.87;100.00;98288.66;5119135;28;19930;-75
2023/01/12 00:55:34;;;;;;;;;;;;;;;6.87;100.00;98288.66;5106025;28;19974;-75
2023/01/12 00:58:02;;;;;;;;;;;;;;;6.96;100.00;98291.78;5097259;28;19928;-75
2023/01/12 01:00:29;;;;;;;;;;;;;;;6.87;100.00;98290.53;5100483;28;20002;-74
2023/01/12 01:02:55;;;;;;;;;;;;;;;6.88;100.00;98295.59;5100694;28;19983;-74
2023/01/12 01:05:21;;;;;;;;;;;;;;;6.91;100.00;98289.81;5098686;28;19920;-74
2023/01/12 01:07:48;;;;;;;;;;;;;;;6.92;100.00;98286.13;5115707;28;19924;-75
2023/01/12 01:10:15;;;;;;;;;;;;;;;6.75;100.00;98287.00;5099728;28;19920;-74
2023/01/12 01:12:41;;;;;;;;;;;;;;;6.77;100.00;98298.22;5119431;28;19919;-75
2023/01/12 01:15:10;;;;;;;;;;;;;;;6.86;100.00;98294.19;5100217;28;19928;-75
2023/01/12 01:17:36;;;;;;;;;;;;;;;6.80;100.00;98293.28;5096920;28;19977;-75
2023/01/12 01:20:04;;;;;;;;;;;;;;;6.97;100.00;98302.16;5115554;28;19923;-75
2023/01/12 01:22:31;;;;;;;;;;;;;;;6.94;100.00;98299.16;5118732;28;19941;-75
2023/01/12 01:24:57;;;;;;;;;;;;;;;6.93;100.00;98310.84;5093497;28;19946;-75
2023/01/12 01:27:24;;;;;;;;;;;;;;;6.93;100.00;98319.59;5091085;28;19928;-75
2023/01/12 01:29:50;;;;;;;;;;;;;;;6.93;100.00;98316.94;5118779;28;19953;-76
2023/01/12 01:32:18;;;;;;;;;;;;;;;6.93;100.00;98318.81;5117357;28;19998;-75
2023/01/12 01:34:45;;;;;;;;;;;;;;;6.80;100.00;98303.09;5097145;28;19934;-75
2023/01/12 01:37:11;;;;;;;;;;;;;;;6.65;100.00;98308.03;5097450;28;19924;-75
2023/01/12 01:39:38;;;;;;;;;;;;;;;6.79;100.00;98307.59;5100554;28;19923;-75
2023/01/12 01:42:04;;;;;;;;;;;;;;;6.75;100.00;98306.41;5099970;28;19949;-75
2023/01/12 01:44:50;;;;;;;;;;;;;;;6.81;100.00;98302.84;5096681;28;19920;-75
2023/01/12 01:47:22;;;;;;;;;;;;;;;6.85;100.00;98303.19;5098025;28;19990;-75
2023/01/12 01:49:51;;;;;;;;;;;;;;;6.76;100.00;98309.88;5118361;28;19919;-75
2023/01/12 01:52:19;;;;;;;;;;;;;;;6.70;100.00;98306.28;5117098;28;19923;-75
2023/01/12 01:54:48;;;;;;;;;;;;;;;6.78;100.00;98310.44;5124859;27;19935;-75
2023/01/12 01:57:15;;;;;;;;;;;;;;;6.95;100.00;98306.91;5099648;28;19920;-75
2023/01/12 01:59:45;;;;;;;;;;;;;;;6.95;100.00;98311.41;5096836;28;19924;-75
2023/01/12 02:02:13;;;;;;;;;;;;;;;6.81;100.00;98310.81;5115807;28;20535;-75
2023/01/12 02:04:41;;;;;;;;;;;;;;;6.75;100.00;98311.72;5100771;28;19923;-75
2023/01/12 02:07:08;;;;;;;;;;;;;;;6.90;100.00;98316.59;5118590;28;19973;-74
2023/01/12 02:09:35;;;;;;;;;;;;;;;6.79;100.00;98309.41;5097428;28;19924;-75
2023/01/12 02:17:41;;;;;;;;;;;;;;;6.67;100.00;98309.41;5100308;28;19928;-75
2023/01/12 02:20:26;;;;;;;;;;;;;;;6.59;100.00;98308.94;5099832;28;19955;-75
2023/01/12 02:23:06;;;;;;;;;;;;;;;6.81;100.00;98315.28;5065019;28;19923;-75
2023/01/12 02:25:51;;;;;;;;;;;;;;;6.66;100.00;98310.44;5093424;28;20010;-75
2023/01/12 02:28:35;;;;;;;;;;;;;;;6.69;100.00;98311.81;5097038;28;19946;-76
2023/01/12 02:31:25;;;;;;;;;;;;;;;6.72;100.00;98306.88;5115133;28;19928;-75
2023/01/12 02:34:00;;;;;;;;;;;;;;;6.65;100.00;98297.41;5089463;28;19939;-75
2023/01/12 02:36:31;;;;;;;;;;;;;;;6.53;100.00;98297.34;5117672;28;19931;-74
2023/01/12 02:39:03;;;;;;;;;;;;;;;6.69;100.00;98301.19;5118363;28;19931;-75
2023/01/12 02:44:23;;;;;;;;;;;;;;;6.59;100.00;98295.66;5099645;28;19920;-75
2023/01/12 02:46:51;;;;;;;;;;;;;;;6.66;100.00;98296.34;5102015;28;19924;-75
2023/01/12 02:49:21;;;;;;;;;;;;;;;6.53;100.00;98303.47;5100457;28;19924;-75
2023/01/12 02:51:51;;;;;;;;;;;;;;;6.58;100.00;98297.50;5117909;28;19951;-74
2023/01/12 02:54:19;;;;;;;;;;;;;;;6.66;100.00;98297.16;5112118;27;19949;-75
2023/01/12 02:56:48;;;;;;;;;;;;;;;6.60;100.00;98295.44;5108287;28;19920;-75
2023/01/12 02:59:18;;;;;;;;;;;;;;;6.63;100.00;98296.81;5123897;28;19924;-75
2023/01/12 03:01:47;;;;;;;;;;;;;;;6.59;100.00;98287.72;5122000;28;19931;-75
2023/01/12 03:04:14;;;;;;;;;;;;;;;6.69;100.00;98285.28;5102311;28;20319;-73
2023/01/12 03:06:44;;;;;;;;;;;;;;;6.55;100.00;98278.56;5122996;28;19987;-74
2023/01/12 03:09:11;;;;;;;;;;;;;;;6.66;100.00;98285.72;5103358;28;19975;-75
2023/01/12 03:11:40;;;;;;;;;;;;;;;6.57;100.00;98282.63;5118165;28;19924;-75
2023/01/12 03:14:07;;;;;;;;;;;;;;;6.66;100.00;98281.25;5118179;28;19970;-74
2023/01/12 03:16:35;;;;;;;;;;;;;;;6.63;100.00;98281.69;5118461;28;20064;-74
2023/01/12 03:19:05;;;;;;;;;;;;;;;6.64;100.00;98277.19;5100148;28;19950;-75
2023/01/12 03:21:34;;;;;;;;;;;;;;;6.70;100.00;98273.63;5103593;28;19920;-74
2023/01/12 03:24:04;;;;;;;;;;;;;;;6.60;100.00;98273.38;5118837;28;20305;-74
2023/01/12 03:26:33;;;;;;;;;;;;;;;6.72;100.00;98275.03;5114289;28;19931;-75
2023/01/12 03:29:03;;;;;;;;;;;;;;;6.75;100.00;98263.94;5104069;28;20010;-75
2023/01/12 03:31:30;;;;;;;;;;;;;;;6.73;100.00;98265.22;5119904;28;19965;-74
2023/01/12 03:33:56;;;;;;;;;;;;;;;6.72;100.00;98250.31;5119267;28;20389;-74
2023/01/12 03:36:28;;;;;;;;;;;;;;;6.64;100.00;98245.34;5121258;28;19928;-74
2023/01/12 03:39:02;;;;;;;;;;;;;;;6.76;100.00;98235.56;5103879;28;19924;-74
2023/01/12 03:41:34;;;;;;;;;;;;;;;6.71;100.00;98228.31;5118143;28;19963;-75
2023/01/12 03:44:04;;;;;;;;;;;;;;;6.64;100.00;98226.78;5099318;28;19924;-75
2023/01/12 03:46:33;;;;;;;;;;;;;;;6.59;100.00;98231.97;5120618;28;19977;-75
2023/01/12 03:49:02;;;;;;;;;;;;;;;6.61;100.00;98238.66;5120843;28;19924;-75
2023/01/12 03:51:31;;;;;;;;;;;;;;;6.72;100.00;98237.84;5099868;28;19920;-75
2023/01/12 03:53:58;;;;;;;;;;;;;;;6.70;100.00;98239.13;5123732;27;20498;-75
2023/01/12 03:56:27;;;;;;;;;;;;;;;6.65;100.00;98241.69;5103933;28;19924;-75
2023/01/12 03:58:55;;;;;;;;;;;;;;;6.70;100.00;98233.81;5121511;28;19927;-75
2023/01/12 04:01:22;;;;;;;;;;;;;;;6.73;100.00;98246.63;5100993;28;19971;-75
2023/01/12 04:03:48;;;;;;;;;;;;;;;6.67;100.00;98255.50;5099356;28;19951;-75
2023/01/12 04:06:15;;;;;;;;;;;;;;;6.70;100.00;98255.88;5117812;28;19920;-75
2023/01/12 04:08:41;;;;;;;;;;;;;;;6.70;100.00;98252.41;5103418;28;19953;-75
2023/01/12 04:13:48;;;;;;;;;;;;;;;6.70;100.00;98245.25;5115418;28;19947;-75
2023/01/12 04:16:16;;;;;;;;;;;;;;;6.69;100.00;98242.81;5118057;28;19935;-75
2023/01/12 04:18:42;;;;;;;;;;;;;;;6.66;100.00;98241.44;5120280;28;19923;-75
2023/01/12 04:22:41;;;;;;;;;;;;;;;6.66;100.00;98237.97;5101668;28;19987;-75
2023/01/12 04:23:54;;;;;;;;;;;;;;;6.74;100.00;98229.69;5097718;28;20590;-75
2023/01/12 04:26:21;;;;;;;;;;;;;;;6.77;100.00;98226.56;5109720;28;19950;-75
2023/01/12 04:28:48;;;;;;;;;;;;;;;6.78;100.00;98236.13;5101639;28;19950;-76
2023/01/12 04:31:15;;;;;;;;;;;;;;;6.78;100.00;98233.47;5118905;28;19923;-75
2023/01/12 04:33:42;;;;;;;;;;;;;;;6.84;100.00;98237.88;5116330;28;19924;-75
2023/01/12 04:36:10;;;;;;;;;;;;;;;6.81;100.00;98239.13;5116039;28;19992;-74
2023/01/12 04:38:38;;;;;;;;;;;;;;;6.72;100.00;98234.41;5100929;28;19931;-75
2023/01/12 04:41:05;;;;;;;;;;;;;;;6.83;100.00;98228.28;5119647;28;19924;-75
2023/01/12 04:43:31;;;;;;;;;;;;;;;6.65;100.00;98225.75;5097756;28;19987;-75
2023/01/12 04:45:58;;;;;;;;;;;;;;;6.69;100.00;98221.59;5098048;28;19960;-74
2023/01/12 04:48:25;;;;;;;;;;;;;;;6.74;100.00;98208.44;5118401;28;19924;-74
2023/01/12 04:50:52;;;;;;;;;;;;;;;6.56;100.00;98206.69;5101315;28;19928;-74
2023/01/12 04:53:20;;;;;;;;;;;;;;;6.77;100.00;98207.97;5117831;28;19963;-75
2023/01/12 04:55:48;;;;;;;;;;;;;;;6.74;100.00;98211.91;5124411;27;19936;-74
2023/01/12 04:58:14;;;;;;;;;;;;;;;6.84;100.00;98209.47;5117041;28;20000;-74
2023/01/12 05:00:41;;;;;;;;;;;;;;;6.83;100.00;98215.84;5101033;28;19963;-75
2023/01/12 05:03:10;;;;;;;;;;;;;;;6.83;100.00;98207.06;5119280;28;19977;-74
2023/01/12 05:05:37;;;;;;;;;;;;;;;6.72;100.00;98208.66;5097714;28;20315;-75
2023/01/12 05:10:49;;;;;;;;;;;;;;;6.75;100.00;98226.78;5116438;28;19950;-75
2023/01/12 05:13:15;;;;;;;;;;;;;;;6.85;100.00;98221.72;5116533;28;19924;-75
2023/01/12 05:15:42;;;;;;;;;;;;;;;6.84;100.00;98236.00;5119013;28;19991;-74
2023/01/12 05:18:08;;;;;;;;;;;;;;;6.87;100.00;98224.16;5100608;28;19924;-74
2023/01/12 05:20:34;;;;;;;;;;;;;;;6.91;100.00;98238.56;5115855;28;19924;-75
2023/01/12 05:23:02;;;;;;;;;;;;;;;6.89;100.00;98230.84;5115580;28;19963;-75
2023/01/12 05:25:30;;;;;;;;;;;;;;;6.93;100.00;98233.84;5128853;27;19939;-75
2023/01/12 05:27:57;;;;;;;;;;;;;;;6.92;100.00;98238.34;5115481;28;19959;-74
2023/01/12 05:30:23;;;;;;;;;;;;;;;6.78;100.00;98222.84;5099657;28;19924;-74
2023/01/12 05:32:50;;;;;;;;;;;;;;;6.79;100.00;98219.97;5100801;28;19967;-74
2023/01/12 05:35:16;;;;;;;;;;;;;;;6.67;100.00;98211.22;5099388;28;19982;-74
2023/01/12 05:37:43;;;;;;;;;;;;;;;6.56;100.00;98222.59;5115207;28;19931;-74
2023/01/12 05:40:11;;;;;;;;;;;;;;;6.62;100.00;98220.91;5115489;28;19967;-75
2023/01/12 05:45:22;;;;;;;;;;;;;;;6.53;100.00;98228.38;5117028;28;19962;-74
2023/01/12 05:47:55;;;;;;;;;;;;;;;6.41;100.00;98228.38;5115775;28;19920;-75
2023/01/12 05:50:22;;;;;;;;;;;;;;;6.36;100.00;98230.91;5117062;28;19955;-75
2023/01/12 05:52:50;;;;;;;;;;;;;;;6.33;100.00;98218.09;5118496;28;19945;-75
2023/01/12 05:55:19;;;;;;;;;;;;;;;6.38;100.00;98212.91;5125716;27;19951;-74
2023/01/12 05:57:45;;;;;;;;;;;;;;;6.31;100.00;98216.72;5114861;28;19958;-75
2023/01/12 06:00:12;;;;;;;;;;;;;;;6.37;100.00;98221.91;5115474;28;19924;-75
2023/01/12 06:02:38;;;;;;;;;;;;;;;6.42;100.00;98210.59;5099624;28;20187;-75
2023/01/12 06:05:08;;;;;;;;;;;;;;;6.41;100.00;98212.44;5118101;28;19924;-75
2023/01/12 06:07:34;;;;;;;;;;;;;;;6.51;100.00;98215.34;5115054;28;19924;-75
2023/01/12 06:10:01;;;;;;;;;;;;;;;6.47;100.00;98208.88;5114988;28;20049;-75
2023/01/12 06:15:12;;;;;;;;;;;;;;;6.66;100.00;98206.13;5118055;28;19949;-75
2023/01/12 06:17:39;;;;;;;;;;;;;;;6.60;100.00;98205.19;5096619;28;19959;-75
2023/01/12 06:20:06;;;;;;;;;;;;;;;6.55;100.00;98193.66;5114878;28;19920;-75
2023/01/12 06:22:32;;;;;;;;;;;;;;;6.43;100.00;98186.53;5117814;28;19963;-74
2023/01/12 06:24:58;;;;;;;;;;;;;;;6.39;100.00;98201.28;5092487;28;19920;-75
2023/01/12 06:27:25;;;;;;;;;;;;;;;6.29;100.00;98201.00;5090267;28;19963;-75
2023/01/12 06:29:53;;;;;;;;;;;;;;;6.42;100.00;98200.00;5101977;28;19935;-75
2023/01/12 06:32:19;;;;;;;;;;;;;;;6.32;100.00;98189.13;5120884;28;19924;-75
2023/01/12 06:34:45;;;;;;;;;;;;;;;6.29;100.00;98184.28;5100752;28;19924;-76
2023/01/12 06:37:12;;;;;;;;;;;;;;;6.25;100.00;98189.25;5119571;28;19945;-75
2023/01/12 06:39:38;;;;;;;;;;;;;;;6.40;100.00;98192.28;5122860;28;19920;-75
2023/01/12 06:44:53;;;;;;;;;;;;;;;6.43;100.00;98188.34;5122136;28;19959;-75
2023/01/12 06:47:19;;;;;;;;;;;;;;;6.58;100.00;98195.84;5121634;28;19924;-75
2023/01/12 06:49:46;;;;;;;;;;;;;;;6.60;100.00;98193.78;5122916;28;19955;-75
2023/01/12 06:52:13;;;;;;;;;;;;;;;6.58;100.00;98198.50;5121604;28;19923;-75
2023/01/12 06:54:39;;;;;;;;;;;;;;;6.60;100.00;98204.38;5109673;28;19987;-75
2023/01/12 06:57:06;;;;;;;;;;;;;;;6.56;100.00;98198.72;5122364;28;19924;-75
2023/01/12 06:59:33;;;;;;;;;;;;;;;6.35;100.00;98210.72;5118947;28;19928;-76
2023/01/12 07:02:01;;;;;;;;;;;;;;;6.45;100.00;98210.16;5118932;28;19924;-75
2023/01/12 07:04:28;;;;;;;;;;;;;;;6.63;100.00;98203.94;5103041;28;19938;-74
2023/01/12 07:06:55;;;;;;;;;;;;;;;6.58;100.00;98195.84;5121956;28;19928;-75
2023/01/12 07:09:21;;;;;;;;;;;;;;;6.38;100.00;98199.66;5120941;28;19920;-76
2023/01/12 07:11:47;;;;;;;;;;;;;;;6.50;100.00;98191.69;5118956;28;19928;-75
2023/01/12 07:14:14;;;;;;;;;;;;;;;6.39;100.00;98190.66;5120084;28;19991;-75
2023/01/12 07:16:40;;;;;;;;;;;;;;;6.50;100.00;98186.38;5123131;28;19966;-75
2023/01/12 07:19:08;;;;;;;;;;;;;;;6.35;100.00;98193.97;5104154;28;19971;-75
2023/01/12 07:21:35;;;;;;;;;;;;;;;6.38;100.00;98180.25;5110735;28;19928;-75
2023/01/12 07:24:01;;;;;;;;;;;;;;;6.41;100.00;98188.56;5092169;28;19959;-75
2023/01/12 07:26:28;;;;;;;;;;;;;;;6.46;100.00;98191.38;5113737;28;19928;-74
2023/01/12 07:28:55;;;;;;;;;;;;;;;6.43;100.00;98183.06;5124321;28;19923;-75
2023/01/12 07:31:21;;;;;;;;;;;;;;;6.53;100.00;98185.91;5122358;28;19920;-75
2023/01/12 07:33:47;;;;;;;;;;;;;;;6.36;100.00;98183.16;5122380;28;20295;-75
2023/01/12 07:36:15;;;;;;;;;;;;;;;6.55;100.00;98189.19;5121675;28;19955;-75
2023/01/12 07:38:42;;;;;;;;;;;;;;;6.32;100.00;98178.53;5124848;28;19934;-75
2023/01/12 07:42:22;;;;;;;;;;;;;;;6.46;100.00;98175.44;5123386;28;19931;-75
2023/01/12 07:43:55;;;;;;;;;;;;;;;6.57;100.00;98181.78;5102722;28;19987;-75
2023/01/12 07:46:21;;;;;;;;;;;;;;;6.41;100.00;98183.28;5121939;28;19935;-75
2023/01/12 07:48:47;;;;;;;;;;;;;;;6.41;100.00;98179.81;5122002;28;19939;-75
2023/01/12 07:51:14;;;;;;;;;;;;;;;6.61;100.00;98182.13;5120431;28;19952;-75
2023/01/12 07:53:41;;;;;;;;;;;;;;;6.48;100.00;98183.97;5118299;27;20015;-73
2023/01/12 07:56:08;;;;;;;;;;;;;;;6.48;100.00;98189.28;5124046;27;19924;-73
2023/01/12 07:58:35;;;;;;;;;;;;;;;6.40;100.00;98181.66;5109130;28;20280;-74
2023/01/12 08:01:01;;;;;;;;;;;;;;;6.45;100.00;98187.09;5108332;28;19924;-73
2023/01/12 08:03:28;;;;;;;;;;;;;;;6.39;100.00;98185.34;5108523;28;20559;-74
2023/01/12 08:05:56;;;;;;;;;;;;;;;6.54;100.00;98174.28;5089994;28;19928;-75
2023/01/12 08:08:23;;;;;;;;;;;;;;;6.42;100.00;98170.81;5100804;28;19931;-75
2023/01/12 08:10:50;;;;;;;;;;;;;;;6.51;100.00;98170.25;5102065;28;19974;-75
2023/01/12 08:13:17;;;;;;;;;;;;;;;6.44;100.00;98166.91;5119337;28;19923;-74
2023/01/12 08:15:48;;;;;;;;;;;;;;;6.41;100.00;98177.16;5117747;28;20466;-73
2023/01/12 08:18:17;;;;;;;;;;;;;;;6.37;100.00;98179.47;5099733;28;19924;-75
2023/01/12 08:20:44;;;;;;;;;;;;;;;6.42;100.00;98178.78;5124081;28;19924;-74
2023/01/12 08:23:13;;;;;;;;;;;;;;;6.43;100.00;98175.91;5120434;28;19986;-74
2023/01/12 08:25:43;;;;;;;;;;;;;;;6.61;100.00;98176.81;5091387;28;19924;-74
2023/01/12 08:28:13;;;;;;;;;;;;;;;6.44;100.00;98180.16;5116998;28;19925;-74
2023/01/12 08:30:40;;;;;;;;;;;;;;;6.45;100.00;98173.81;5120572;28;19924;-74
2023/01/12 08:33:06;;;;;;;;;;;;;;;6.58;100.00;98177.28;5120678;28;20000;-74
2023/01/12 08:35:37;;;;;;;;;;;;;;;6.84;100.00;98172.31;5098737;28;19920;-74
2023/01/12 08:38:03;;;;;;;;;;;;;;;6.84;100.00;98174.19;5098714;28;19959;-74
2023/01/12 08:43:11;;;;;;;;;;;;;;;6.91;100.00;98173.00;5100262;28;19931;-74
2023/01/12 08:45:38;;;;;;;;;;;;;;;6.76;100.00;98174.50;5097701;28;19966;-74
2023/01/12 08:48:05;;;;;;;;;;;;;;;6.70;100.00;98167.47;5097753;28;19924;-74
2023/01/12 08:50:31;;;;;;;;;;;;;;;6.82;100.00;98170.94;5119106;28;19924;-74
2023/01/12 08:52:57;;;;;;;;;;;;;;;7.03;100.00;98175.63;5119315;28;19958;-75
2023/01/12 08:55:24;;;;;;;;;;;;;;;6.99;100.00;98172.63;5126133;27;19924;-75
2023/01/12 08:57:50;;;;;;;;;;;;;;;7.09;100.00;98169.38;5097745;28;19924;-75
2023/01/12 09:00:19;;;;;;;;;;;;;;;7.10;100.00;98156.91;5099125;28;19951;-75
2023/01/12 09:02:45;;;;;;;;;;;;;;;7.19;100.00;98161.63;5119745;28;19930;-75
2023/01/12 09:05:11;;;;;;;;;;;;;;;7.03;100.00;98154.38;5118976;28;19985;-75
2023/01/12 09:07:38;;;;;;;;;;;;;;;7.09;100.00;98163.28;5117752;28;19920;-73
2023/01/12 09:10:05;;;;;;;;;;;;;;;7.07;100.00;98155.53;5117683;28;19925;-73
2023/01/12 09:12:32;;;;;;;;;;;;;;;7.13;100.00;98162.56;5120052;28;19946;-73
2023/01/12 09:14:58;;;;;;;;;;;;;;;7.00;100.00;98160.97;5119167;28;19924;-73
2023/01/12 09:17:26;;;;;;;;;;;;;;;7.07;100.00;98166.16;5098645;28;19924;-74
2023/01/12 09:19:53;;;;;;;;;;;;;;;7.14;100.00;98156.22;5116305;28;19946;-74
2023/01/12 09:22:19;;;;;;;;;;;;;;;7.00;100.00;98158.31;5117948;28;19956;-73
2023/01/12 09:24:45;;;;;;;;;;;;;;;6.94;100.00;98156.59;5114658;28;19938;-74
2023/01/12 09:27:12;;;;;;;;;;;;;;;6.86;100.00;98150.84;5115495;28;20393;-74
2023/01/12 09:29:38;;;;;;;;;;;;;;;6.99;100.00;98158.56;5097344;28;19959;-74
2023/01/12 09:32:05;;;;;;;;;;;;;;;6.94;100.00;98150.47;5097503;28;19946;-73
2023/01/12 09:34:33;;;;;;;;;;;;;;;7.00;100.00;98153.00;5118317;28;19930;-74
2023/01/12 09:37:00;;;;;;;;;;;;;;;6.97;100.00;98160.63;5118929;28;19935;-73
2023/01/12 09:39:27;;;;;;;;;;;;;;;6.84;100.00;98152.94;5116320;28;19969;-74
2023/01/12 09:47:27;;;;;;;;;;;;;;;7.05;100.00;98149.66;5095540;28;19950;-73
2023/01/12 09:49:57;;;;;;;;;;;;;;;7.17;100.00;98137.16;5119398;28;19920;-74
2023/01/12 09:52:27;;;;;;;;;;;;;;;7.01;100.00;98140.53;5099074;28;19927;-73
2023/01/12 09:54:54;;;;;;;;;;;;;;;7.14;100.00;98124.34;5109027;28;19959;-74
2023/01/12 09:57:36;;;;;;;;;;;;;;;7.02;100.00;98127.00;5119789;28;20339;-74
2023/01/12 10:00:06;;;;;;;;;;;;;;;7.10;100.00;98109.91;5115271;28;19944;-74
2023/01/12 10:02:34;;;;;;;;;;;;;;;7.20;100.00;98111.97;5101057;28;19941;-74
2023/01/12 10:05:03;;;;;;;;;;;;;;;7.05;100.00;98113.31;5099956;28;19924;-74
2023/01/12 10:07:29;;;;;;;;;;;;;;;7.28;100.00;98112.41;5115828;28;19949;-74
2023/01/12 10:09:56;;;;;;;;;;;;;;;7.15;100.00;98119.84;5115076;28;19935;-74
2023/01/12 10:12:26;;;;;;;;;;;;;;;7.17;100.00;98109.78;5117022;28;20262;-74
2023/01/12 10:15:01;;;;;;;;;;;;;;;7.25;100.00;98120.03;5118778;28;19924;-74
2023/01/12 10:17:35;;;;;;;;;;;;;;;7.15;100.00;98117.97;5115827;28;19949;-74
2023/01/12 10:20:09;;;;;;;;;;;;;;;7.12;100.00;98129.06;5115197;28;19931;-74
2023/01/12 10:22:41;;;;;;;;;;;;;;;7.19;100.00;98120.97;5097503;28;19939;-73
2023/01/12 10:25:14;;;;;;;;;;;;;;;7.13;100.00;98116.59;5110461;28;19948;-74
2023/01/12 10:27:42;;;;;;;;;;;;;;;7.28;100.00;98107.09;5115098;28;19920;-74
2023/01/12 10:30:11;;;;;;;;;;;;;;;7.32;100.00;98116.19;5096859;28;19920;-73
2023/01/12 10:32:37;;;;;;;;;;;;;;;7.36;100.00;98112.03;5118797;28;19919;-73
2023/01/12 10:35:12;;;;;;;;;;;;;;;7.41;100.00;98111.31;5119330;28;19953;-74
2023/01/12 10:37:43;;;;;;;;;;;;;;;7.40;100.00;98104.38;5097446;28;19983;-74
2023/01/12 10:40:18;;;;;;;;;;;;;;;7.53;100.00;98112.88;5115491;28;20599;-74
2023/01/12 10:45:35;;;;;;;;;;;;;;;7.58;100.00;98107.63;5116279;28;19963;-74
2023/01/12 10:48:15;;;;;;;;;;;;;;;7.60;100.00;98105.56;5096931;28;19931;-73
2023/01/12 10:50:43;;;;;;;;;;;;;;;7.52;100.00;98100.63;5116022;28;19984;-75
2023/01/12 10:53:13;;;;;;;;;;;;;;;7.52;100.00;98092.66;5118645;28;19924;-74
2023/01/12 10:55:41;;;;;;;;;;;;;;;7.58;100.00;98099.66;5131542;27;19924;-74
2023/01/12 10:58:19;;;;;;;;;;;;;;;7.67;100.00;98091.31;5103771;28;19931;-74
2023/01/12 11:00:47;;;;;;;;;;;;;;;7.56;100.00;98088.47;5095312;28;19920;-74
2023/01/12 11:03:28;;;;;;;;;;;;;;;7.60;100.00;98086.16;5095454;28;19919;-74
2023/01/12 11:05:56;;;;;;;;;;;;;;;7.72;100.00;98089.56;5113293;28;19974;-73
2023/01/12 11:08:23;;;;;;;;;;;;;;;7.58;100.00;98078.41;5099688;28;19944;-73
2023/01/12 11:10:49;;;;;;;;;;;;;;;7.73;100.00;98071.75;5112509;28;19924;-74
2023/01/12 11:13:24;;;;;;;;;;;;;;;7.63;100.00;98071.56;5118750;28;20233;-75
2023/01/12 11:15:56;;;;;;;;;;;;;;;7.89;100.00;98063.78;5104176;28;19983;-75
2023/01/12 11:18:29;;;;;;;;;;;;;;;8.12;100.00;98058.28;5102474;28;19928;-74
2023/01/12 11:21:00;;;;;;;;;;;;;;;7.89;100.00;98057.66;5122216;28;19924;-75
2023/01/12 11:23:30;;;;;;;;;;;;;;;7.76;100.00;98044.69;5119740;28;19935;-75
2023/01/12 11:25:59;;;;;;;;;;;;;;;7.86;100.00;98034.22;5110128;28;19939;-75
2023/01/12 11:28:28;;;;;;;;;;;;;;;7.72;100.00;98028.41;5103032;28;19920;-74
2023/01/12 11:30:57;;;;;;;;;;;;;;;8.00;100.00;98035.50;5105576;28;19924;-74
2023/01/12 11:33:27;;;;;;;;;;;;;;;7.78;100.00;98031.94;5123063;28;19926;-76
2023/01/12 11:35:57;;;;;;;;;;;;;;;7.77;100.00;98027.69;5099462;28;20001;-76
2023/01/12 11:38:27;;;;;;;;;;;;;;;7.77;100.00;98023.16;5101688;28;19920;-76
2023/01/12 11:40:55;;;;;;;;;;;;;;;7.72;100.00;98015.13;5120929;28;19924;-76
2023/01/12 11:46:16;;;;;;;;;;;;;;;7.75;100.00;98013.81;5117806;28;20341;-74
2023/01/12 11:48:45;;;;;;;;;;;;;;;8.20;100.00;98009.19;5120644;28;19934;-74
2023/01/12 11:51:15;;;;;;;;;;;;;;;8.36;100.00;98000.38;5119954;28;20292;-74
2023/01/12 11:53:43;;;;;;;;;;;;;;;8.23;100.00;97998.06;5118531;27;19920;-74
2023/01/12 11:56:17;;;;;;;;;;;;;;;8.53;100.00;97992.34;5123758;27;19924;-74
2023/01/12 11:58:51;;;;;;;;;;;;;;;8.33;100.00;97986.75;5102159;28;19941;-75
2023/01/12 12:01:21;;;;;;;;;;;;;;;8.23;100.00;97982.13;5101050;28;20467;-75
2023/01/12 12:03:54;;;;;;;;;;;;;;;8.03;100.00;97979.16;5117164;28;20508;-74
2023/01/12 12:06:27;;;;;;;;;;;;;;;8.05;100.00;97980.50;5118665;28;19970;-75
2023/01/12 12:09:03;;;;;;;;;;;;;;;8.20;100.00;97977.25;5120558;28;19931;-75
2023/01/12 12:11:34;;;;;;;;;;;;;;;8.08;100.00;97972.03;5118115;28;19924;-75
2023/01/12 12:14:07;;;;;;;;;;;;;;;8.19;100.00;97986.31;5117642;28;19924;-75
2023/01/12 12:16:37;;;;;;;;;;;;;;;8.17;100.00;97984.94;5121404;28;19974;-74
2023/01/12 12:19:13;;;;;;;;;;;;;;;8.26;100.00;97965.66;5122479;28;19930;-75
2023/01/12 12:21:46;;;;;;;;;;;;;;;8.23;100.00;97968.00;5117590;28;19924;-74
2023/01/12 12:24:19;;;;;;;;;;;;;;;8.20;100.00;97974.59;5099508;28;19924;-75
2023/01/12 12:26:51;;;;;;;;;;;;;;;8.19;100.00;97972.19;5113322;28;19964;-74
2023/01/12 12:29:26;;;;;;;;;;;;;;;8.32;100.00;97982.50;5119832;28;19934;-74
2023/01/12 12:32:07;;;;;;;;;;;;;;;8.22;100.00;97977.84;5116942;28;19969;-74
2023/01/12 12:34:43;;;;;;;;;;;;;;;8.28;100.00;97981.38;5102247;28;19934;-74
2023/01/12 12:37:15;;;;;;;;;;;;;;;8.24;100.00;97970.41;5101880;28;19924;-74
2023/01/12 12:39:56;;;;;;;;;;;;;;;8.16;100.00;97973.50;5116477;28;19947;-74
2023/01/12 12:45:23;;;;;;;;;;;;;;;8.25;100.00;97971.22;5117718;28;20386;-74
2023/01/12 12:47:55;;;;;;;;;;;;;;;8.09;100.00;97956.91;5116683;28;19936;-75
2023/01/12 12:50:23;;;;;;;;;;;;;;;8.14;100.00;97957.75;5118318;28;19983;-75
2023/01/12 12:53:02;;;;;;;;;;;;;;;8.18;100.00;97952.75;5119812;28;19924;-75
2023/01/12 12:55:30;;;;;;;;;;;;;;;8.13;100.00;97953.50;5126306;27;19965;-75
2023/01/12 12:58:01;;;;;;;;;;;;;;;8.04;100.00;97956.84;5097844;28;19967;-75
2023/01/12 13:00:28;;;;;;;;;;;;;;;8.24;100.00;97951.78;5119015;28;19970;-75
2023/01/12 13:02:55;;;;;;;;;;;;;;;8.26;100.00;97932.91;5119419;28;19955;-75
2023/01/12 13:05:36;;;;;;;;;;;;;;;8.34;100.00;97937.81;5099498;28;19928;-75
2023/01/12 13:08:02;;;;;;;;;;;;;;;8.11;100.00;97928.19;5097543;28;19946;-74
2023/01/12 13:10:31;;;;;;;;;;;;;;;8.18;100.00;97923.50;5099853;28;19987;-74
2023/01/12 13:12:58;;;;;;;;;;;;;;;8.05;100.00;97929.19;5119166;28;19923;-74
2023/01/12 13:15:28;;;;;;;;;;;;;;;8.28;100.00;97923.66;5098963;28;19966;-74
2023/01/12 13:17:55;;;;;;;;;;;;;;;8.12;100.00;97924.50;5116343;28;19924;-74
2023/01/12 13:20:42;;;;;;;;;;;;;;;7.98;100.00;97934.66;5118583;28;19920;-73
2023/01/12 13:23:23;;;;;;;;;;;;;;;8.27;100.00;97934.50;5119641;28;19923;-76
2023/01/12 13:25:55;;;;;;;;;;;;;;;8.09;100.00;97924.97;5089943;28;19924;-74
2023/01/12 13:28:21;;;;;;;;;;;;;;;8.12;100.00;97919.97;5097804;28;19957;-74
2023/01/12 13:30:54;;;;;;;;;;;;;;;8.30;100.00;97932.19;5097289;28;19924;-75
2023/01/12 13:33:22;;;;;;;;;;;;;;;8.17;100.00;97923.75;5117561;28;19935;-75
2023/01/12 13:36:04;;;;;;;;;;;;;;;8.25;100.00;97918.00;5100803;28;19924;-75
2023/01/12 13:38:39;;;;;;;;;;;;;;;8.31;100.00;97925.84;5130633;27;19924;-75
2023/01/12 13:43:13;;;;;;;;;;;;;;;8.29;100.00;97919.16;5115088;28;19996;-74